createdAt,value
2018-04-11T00:00:20.812Z,15.80
2018-04-11T00:01:20.806Z,15.80
2018-04-11T00:02:20.800Z,15.80
2018-04-11T00:03:20.792Z,16.90
2018-04-11T00:04:20.787Z,17.20
2018-04-11T00:05:20.780Z,16.40
2018-04-11T00:06:20.773Z,17.60
2018-04-11T00:07:20.780Z,16.10
2018-04-11T00:08:20.760Z,16.80
2018-04-11T00:09:20.754Z,17.00
2018-04-11T00:10:20.750Z,17.50
2018-04-11T00:11:20.743Z,17.50
2018-04-11T00:12:20.737Z,16.30
2018-04-11T00:13:20.730Z,16.70
2018-04-11T00:14:20.724Z,16.60
2018-04-11T00:15:20.717Z,16.30
2018-04-11T00:16:20.712Z,15.70
2018-04-11T00:17:20.705Z,15.20
2018-04-11T00:18:20.699Z,14.70
2018-04-11T00:19:20.693Z,14.90
2018-04-11T00:20:20.688Z,14.40
2018-04-11T00:21:20.681Z,14.20
2018-04-11T00:22:20.675Z,13.90
2018-04-11T00:23:20.670Z,13.60
2018-04-11T00:24:20.663Z,13.50
2018-04-11T00:25:20.657Z,14.60
2018-04-11T00:26:20.651Z,14.30
2018-04-11T00:27:20.643Z,13.80
2018-04-11T00:28:20.638Z,14.10
2018-04-11T00:29:20.630Z,14.30
2018-04-11T00:30:20.622Z,14.40
2018-04-11T00:31:20.615Z,14.50
2018-04-11T00:32:20.607Z,14.40
2018-04-11T00:33:20.604Z,13.70
2018-04-11T00:34:20.593Z,14.60
2018-04-11T00:35:20.587Z,13.60
2018-04-11T00:36:20.581Z,14.60
2018-04-11T00:37:20.573Z,14.00
2018-04-11T00:38:20.566Z,14.20
2018-04-11T00:39:20.560Z,13.90
2018-04-11T00:40:20.554Z,14.00
2018-04-11T00:41:20.547Z,14.50
2018-04-11T00:42:20.540Z,13.80
2018-04-11T00:43:20.534Z,13.40
2018-04-11T00:44:20.528Z,13.00
2018-04-11T00:45:20.522Z,11.90
2018-04-11T00:46:20.541Z,11.90
2018-04-11T00:47:20.509Z,12.20
2018-04-11T00:48:20.503Z,12.10
2018-04-11T00:49:20.496Z,12.10
2018-04-11T00:50:20.489Z,13.10
2018-04-11T00:51:20.485Z,11.90
2018-04-11T00:52:20.477Z,12.50
2018-04-11T00:53:20.471Z,13.20
2018-04-11T00:54:20.465Z,12.70
2018-04-11T00:55:20.459Z,12.50
2018-04-11T00:56:20.451Z,12.50
2018-04-11T00:57:20.444Z,13.20
2018-04-11T00:58:20.442Z,12.70
2018-04-11T00:59:20.431Z,12.40
2018-04-11T01:00:20.425Z,13.00
2018-04-11T01:01:20.418Z,13.00
2018-04-11T01:02:20.412Z,13.10
2018-04-11T01:03:20.405Z,12.70
2018-04-11T01:04:20.399Z,13.00
2018-04-11T01:05:20.399Z,12.60
2018-04-11T01:06:20.388Z,13.20
2018-04-11T01:07:20.381Z,12.50
2018-04-11T01:08:20.375Z,13.00
2018-04-11T01:09:20.368Z,12.10
2018-04-11T01:10:20.363Z,12.40
2018-04-11T01:11:20.356Z,12.30
2018-04-11T01:12:20.350Z,11.60
2018-04-11T01:13:20.346Z,12.90
2018-04-11T01:14:20.335Z,12.50
2018-04-11T01:15:20.330Z,11.40
2018-04-11T01:16:20.326Z,11.70
2018-04-11T01:17:20.318Z,12.10
2018-04-11T01:18:20.311Z,11.60
2018-04-11T01:19:20.306Z,11.70
2018-04-11T01:20:20.298Z,11.50
2018-04-11T01:21:20.294Z,11.00
2018-04-11T01:22:20.344Z,11.20
2018-04-11T01:23:20.281Z,10.80
2018-04-11T01:24:20.274Z,10.90
2018-04-11T01:25:20.269Z,10.20
2018-04-11T01:26:20.261Z,10.30
2018-04-11T01:27:20.255Z,11.20
2018-04-11T01:28:20.248Z,10.40
2018-04-11T01:29:20.245Z,11.20
2018-04-11T01:30:20.236Z,11.20
2018-04-11T01:31:20.230Z,10.50
2018-04-11T01:32:20.227Z,10.70
2018-04-11T01:33:20.217Z,10.80
2018-04-11T01:34:20.209Z,10.70
2018-04-11T01:35:20.203Z,10.40
2018-04-11T01:36:20.198Z,10.70
2018-04-11T01:37:20.191Z,10.80
2018-04-11T01:38:20.185Z,11.00
2018-04-11T01:39:20.179Z,10.80
2018-04-11T01:40:20.172Z,11.30
2018-04-11T01:41:20.167Z,10.80
2018-04-11T01:42:20.158Z,10.90
2018-04-11T01:43:20.154Z,10.80
2018-04-11T01:44:20.146Z,10.90
2018-04-11T01:45:20.140Z,10.80
2018-04-11T01:46:20.133Z,11.40
2018-04-11T01:47:20.128Z,10.70
2018-04-11T01:48:20.121Z,10.40
2018-04-11T01:49:20.117Z,11.30
2018-04-11T01:50:20.108Z,10.80
2018-04-11T01:51:20.103Z,10.50
2018-04-11T01:52:20.101Z,10.80
2018-04-11T01:53:20.091Z,11.20
2018-04-11T01:54:20.085Z,10.60
2018-04-11T01:55:20.077Z,11.20
2018-04-11T01:56:20.071Z,11.50
2018-04-11T01:57:20.067Z,11.90
2018-04-11T01:58:20.060Z,12.40
2018-04-11T01:59:20.053Z,12.40
2018-04-11T02:00:20.047Z,13.30
2018-04-11T02:01:20.041Z,13.20
2018-04-11T02:02:20.034Z,13.40
2018-04-11T02:03:20.035Z,14.30
2018-04-11T02:04:20.022Z,13.70
2018-04-11T02:05:20.024Z,14.00
2018-04-11T02:06:20.012Z,14.50
2018-04-11T02:07:20.003Z,15.60
2018-04-11T02:08:19.996Z,15.00
2018-04-11T02:09:19.990Z,14.50
2018-04-11T02:10:19.983Z,14.70
2018-04-11T02:11:19.977Z,15.20
2018-04-11T02:12:19.970Z,15.40
2018-04-11T02:13:19.963Z,15.40
2018-04-11T02:14:19.982Z,16.80
2018-04-11T02:15:19.951Z,17.00
2018-04-11T02:16:19.943Z,16.40
2018-04-11T02:17:19.938Z,16.30
2018-04-11T02:18:19.931Z,16.30
2018-04-11T02:19:19.924Z,15.60
2018-04-11T02:20:19.916Z,16.90
2018-04-11T02:21:19.910Z,16.00
2018-04-11T02:22:19.903Z,15.30
2018-04-11T02:23:19.897Z,15.90
2018-04-11T02:24:19.891Z,16.10
2018-04-11T02:25:19.885Z,15.50
2018-04-11T02:26:19.877Z,15.60
2018-04-11T02:27:19.870Z,14.70
2018-04-11T02:28:19.864Z,15.30
2018-04-11T02:29:19.858Z,15.90
2018-04-11T02:30:19.851Z,15.00
2018-04-11T02:31:19.844Z,15.60
2018-04-11T02:32:19.838Z,15.00
2018-04-11T02:33:19.832Z,15.00
2018-04-11T02:34:19.823Z,16.70
2018-04-11T02:35:19.818Z,17.90
2018-04-11T02:36:19.812Z,18.90
2018-04-11T02:37:19.804Z,19.00
2018-04-11T02:38:19.796Z,20.30
2018-04-11T02:39:19.790Z,19.50
2018-04-11T02:40:19.784Z,20.60
2018-04-11T02:41:19.777Z,19.00
2018-04-11T02:42:19.769Z,19.00
2018-04-11T02:43:19.763Z,18.50
2018-04-11T02:44:19.758Z,19.00
2018-04-11T02:45:19.750Z,18.20
2018-04-11T02:46:19.742Z,20.40
2018-04-11T02:47:19.735Z,20.60
2018-04-11T02:48:19.729Z,19.70
2018-04-11T02:49:19.722Z,20.50
2018-04-11T02:50:19.715Z,21.40
2018-04-11T02:51:19.708Z,21.90
2018-04-11T02:52:19.701Z,23.00
2018-04-11T02:53:19.694Z,23.40
2018-04-11T02:54:19.686Z,23.60
2018-04-11T02:55:19.680Z,24.00
2018-04-11T02:56:19.673Z,24.50
2018-04-11T02:57:19.667Z,23.30
2018-04-11T02:58:19.659Z,24.00
2018-04-11T02:59:19.653Z,24.90
2018-04-11T03:00:19.701Z,25.50
2018-04-11T03:01:19.641Z,24.60
2018-04-11T03:02:19.632Z,24.90
2018-04-11T03:03:19.626Z,25.10
2018-04-11T03:04:19.619Z,25.30
2018-04-11T03:05:19.613Z,24.70
2018-04-11T03:06:19.608Z,25.60
2018-04-11T03:07:19.600Z,25.40
2018-04-11T03:08:19.594Z,25.30
2018-04-11T03:09:19.610Z,24.70
2018-04-11T03:10:19.579Z,24.20
2018-04-11T03:11:19.572Z,24.90
2018-04-11T03:12:19.566Z,24.50
2018-04-11T03:13:19.559Z,24.60
2018-04-11T03:14:19.552Z,24.90
2018-04-11T03:15:19.546Z,25.10
2018-04-11T03:16:19.539Z,24.60
2018-04-11T03:17:19.533Z,25.10
2018-04-11T03:18:19.525Z,24.30
2018-04-11T03:19:19.519Z,24.30
2018-04-11T03:20:19.512Z,24.80
2018-04-11T03:21:19.504Z,25.50
2018-04-11T03:22:19.497Z,25.80
2018-04-11T03:23:19.491Z,26.80
2018-04-11T03:24:19.483Z,25.40
2018-04-11T03:25:19.476Z,26.00
2018-04-11T03:26:19.468Z,24.60
2018-04-11T03:27:19.463Z,26.90
2018-04-11T03:28:19.456Z,25.90
2018-04-11T03:29:19.448Z,26.60
2018-04-11T03:30:19.442Z,25.90
2018-04-11T03:31:19.435Z,25.70
2018-04-11T03:32:19.429Z,25.20
2018-04-11T03:33:19.421Z,24.20
2018-04-11T03:34:19.414Z,25.90
2018-04-11T03:35:19.409Z,26.00
2018-04-11T03:36:19.400Z,26.50
2018-04-11T03:37:19.393Z,26.90
2018-04-11T03:38:19.387Z,25.30
2018-04-11T03:39:19.378Z,25.40
2018-04-11T03:40:19.376Z,26.00
2018-04-11T03:41:19.365Z,26.20
2018-04-11T03:42:19.361Z,26.10
2018-04-11T03:43:19.351Z,25.60
2018-04-11T03:44:19.345Z,25.70
2018-04-11T03:45:19.338Z,25.20
2018-04-11T03:46:19.330Z,25.00
2018-04-11T03:47:19.325Z,24.90
2018-04-11T03:48:19.318Z,24.30
2018-04-11T03:49:19.311Z,24.80
2018-04-11T03:50:19.302Z,24.40
2018-04-11T03:51:19.295Z,24.40
2018-04-11T03:52:19.288Z,24.70
2018-04-11T03:53:19.282Z,25.40
2018-04-11T03:54:19.274Z,23.70
2018-04-11T03:55:19.268Z,25.10
2018-04-11T03:56:19.263Z,23.90
2018-04-11T03:57:19.254Z,24.20
2018-04-11T03:58:19.247Z,23.00
2018-04-11T03:59:19.238Z,24.10
2018-04-11T04:00:19.231Z,23.60
2018-04-11T04:01:19.225Z,22.30
2018-04-11T04:02:19.217Z,23.00
2018-04-11T04:03:19.209Z,22.80
2018-04-11T04:04:19.203Z,23.20
2018-04-11T04:05:19.196Z,22.20
2018-04-11T04:06:19.188Z,23.50
2018-04-11T04:07:19.181Z,21.70
2018-04-11T04:08:19.174Z,22.40
2018-04-11T04:09:19.168Z,23.00
2018-04-11T04:10:19.164Z,22.80
2018-04-11T04:11:19.154Z,22.80
2018-04-11T04:12:19.147Z,22.60
2018-04-11T04:13:19.138Z,22.10
2018-04-11T04:14:19.132Z,23.30
2018-04-11T04:15:19.124Z,22.10
2018-04-11T04:16:19.118Z,22.60
2018-04-11T04:17:19.110Z,24.20
2018-04-11T04:18:19.103Z,23.20
2018-04-11T04:19:19.096Z,22.70
2018-04-11T04:20:19.089Z,22.20
2018-04-11T04:21:19.082Z,22.10
2018-04-11T04:22:19.075Z,22.50
2018-04-11T04:23:19.070Z,21.90
2018-04-11T04:24:19.060Z,21.50
2018-04-11T04:25:19.055Z,21.90
2018-04-11T04:26:19.048Z,21.40
2018-04-11T04:27:19.039Z,21.40
2018-04-11T04:28:19.033Z,21.80
2018-04-11T04:29:19.249Z,21.00
2018-04-11T04:30:19.017Z,21.20
2018-04-11T04:31:19.031Z,21.40
2018-04-11T04:32:19.227Z,20.70
2018-04-11T04:33:18.996Z,20.80
2018-04-11T04:34:18.988Z,21.40
2018-04-11T04:35:18.983Z,20.50
2018-04-11T04:36:18.974Z,20.80
2018-04-11T04:37:18.970Z,20.40
2018-04-11T04:38:18.960Z,21.50
2018-04-11T04:39:19.056Z,21.20
2018-04-11T04:40:18.946Z,21.90
2018-04-11T04:41:18.938Z,21.50
2018-04-11T04:42:18.930Z,20.60
2018-04-11T04:43:18.928Z,20.10
2018-04-11T04:44:18.918Z,20.90
2018-04-11T04:45:18.910Z,20.80
2018-04-11T04:46:18.902Z,20.20
2018-04-11T04:47:18.894Z,20.00
2018-04-11T04:48:18.887Z,20.40
2018-04-11T04:49:18.881Z,20.40
2018-04-11T04:50:18.904Z,20.20
2018-04-11T04:51:18.867Z,20.60
2018-04-11T04:52:18.859Z,20.00
2018-04-11T04:53:18.851Z,20.30
2018-04-11T04:54:18.843Z,19.60
2018-04-11T04:55:18.837Z,19.60
2018-04-11T04:56:18.830Z,18.60
2018-04-11T04:57:18.823Z,18.20
2018-04-11T04:58:18.815Z,18.80
2018-04-11T04:59:18.809Z,18.90
2018-04-11T05:00:18.801Z,19.30
2018-04-11T05:01:18.796Z,19.70
2018-04-11T05:02:18.787Z,20.10
2018-04-11T05:03:18.779Z,18.90
2018-04-11T05:04:18.771Z,20.30
2018-04-11T05:05:18.765Z,19.90
2018-04-11T05:06:18.759Z,19.70
2018-04-11T05:07:18.750Z,19.30
2018-04-11T05:08:18.745Z,20.20
2018-04-11T05:09:18.837Z,19.90
2018-04-11T05:10:18.728Z,20.20
2018-04-11T05:11:18.721Z,19.30
2018-04-11T05:12:18.715Z,20.00
2018-04-11T05:13:18.708Z,19.70
2018-04-11T05:14:18.700Z,18.60
2018-04-11T05:15:18.792Z,18.40
2018-04-11T05:16:18.686Z,20.40
2018-04-11T05:17:18.682Z,19.20
2018-04-11T05:18:18.671Z,19.90
2018-04-11T05:19:18.667Z,21.10
2018-04-11T05:20:18.657Z,20.30
2018-04-11T05:21:18.651Z,21.30
2018-04-11T05:22:18.643Z,22.30
2018-04-11T05:23:18.635Z,22.90
2018-04-11T05:24:18.629Z,22.30
2018-04-11T05:25:18.621Z,23.20
2018-04-11T05:26:18.613Z,23.40
2018-04-11T05:27:18.638Z,23.60
2018-04-11T05:28:18.602Z,23.80
2018-04-11T05:29:18.592Z,21.50
2018-04-11T05:30:18.584Z,22.60
2018-04-11T05:31:18.577Z,20.90
2018-04-11T05:32:18.570Z,21.00
2018-04-11T05:33:18.563Z,21.90
2018-04-11T05:34:18.554Z,21.60
2018-04-11T05:35:18.547Z,21.50
2018-04-11T05:36:18.540Z,21.40
2018-04-11T05:37:18.535Z,21.30
2018-04-11T05:38:18.526Z,20.80
2018-04-11T05:39:18.518Z,22.30
2018-04-11T05:40:18.512Z,21.30
2018-04-11T05:41:18.506Z,21.50
2018-04-11T05:42:18.495Z,21.00
2018-04-11T05:43:18.488Z,21.30
2018-04-11T05:44:18.482Z,22.50
2018-04-11T05:45:18.473Z,21.80
2018-04-11T05:46:18.466Z,22.10
2018-04-11T05:47:18.460Z,22.20
2018-04-11T05:48:18.452Z,21.80
2018-04-11T05:49:18.445Z,22.30
2018-04-11T05:50:18.437Z,23.10
2018-04-11T05:51:18.430Z,22.80
2018-04-11T05:52:18.422Z,22.90
2018-04-11T05:53:18.415Z,23.10
2018-04-11T05:54:18.409Z,23.60
2018-04-11T05:55:18.400Z,23.50
2018-04-11T05:56:18.393Z,22.70
2018-04-11T05:57:18.387Z,23.50
2018-04-11T05:58:18.377Z,24.00
2018-04-11T05:59:18.372Z,23.80
2018-04-11T06:00:18.363Z,23.60
2018-04-11T06:01:18.362Z,21.80
2018-04-11T06:02:18.349Z,23.70
2018-04-11T06:03:18.341Z,23.60
2018-04-11T06:04:18.334Z,23.80
2018-04-11T06:05:18.327Z,23.30
2018-04-11T06:06:18.319Z,24.60
2018-04-11T06:07:18.313Z,23.20
2018-04-11T06:08:18.305Z,23.00
2018-04-11T06:09:18.398Z,23.20
2018-04-11T06:10:18.289Z,23.20
2018-04-11T06:11:18.283Z,22.60
2018-04-11T06:12:18.275Z,22.90
2018-04-11T06:13:18.267Z,22.50
2018-04-11T06:14:18.258Z,22.00
2018-04-11T06:15:18.253Z,22.80
2018-04-11T06:16:18.244Z,22.20
2018-04-11T06:17:18.237Z,23.20
2018-04-11T06:18:18.229Z,21.60
2018-04-11T06:19:18.221Z,22.30
2018-04-11T06:20:18.217Z,22.20
2018-04-11T06:21:18.207Z,22.20
2018-04-11T06:22:18.198Z,21.90
2018-04-11T06:23:18.192Z,23.00
2018-04-11T06:24:18.184Z,21.30
2018-04-11T06:25:18.176Z,22.20
2018-04-11T06:26:18.168Z,22.80
2018-04-11T06:27:18.160Z,22.20
2018-04-11T06:28:18.156Z,23.10
2018-04-11T06:29:18.146Z,22.30
2018-04-11T06:30:18.138Z,23.30
2018-04-11T06:31:18.130Z,23.60
2018-04-11T06:32:18.123Z,23.20
2018-04-11T06:33:18.117Z,22.70
2018-04-11T06:34:18.108Z,23.50
2018-04-11T06:35:18.100Z,24.00
2018-04-11T06:36:18.095Z,23.40
2018-04-11T06:37:18.086Z,24.30
2018-04-11T06:38:18.078Z,24.10
2018-04-11T06:39:18.179Z,25.10
2018-04-11T06:40:18.064Z,24.10
2018-04-11T06:41:18.057Z,24.90
2018-04-11T06:42:18.048Z,24.60
2018-04-11T06:43:18.041Z,24.10
2018-04-11T06:44:18.034Z,25.00
2018-04-11T06:45:18.127Z,23.60
2018-04-11T06:46:18.018Z,23.80
2018-04-11T06:47:18.050Z,24.70
2018-04-11T06:48:18.004Z,24.70
2018-04-11T06:49:17.997Z,23.30
2018-04-11T06:50:17.990Z,25.00
2018-04-11T06:51:18.083Z,24.20
2018-04-11T06:52:17.974Z,23.20
2018-04-11T06:53:17.968Z,23.50
2018-04-11T06:54:17.963Z,23.70
2018-04-11T06:55:17.959Z,22.80
2018-04-11T06:56:17.945Z,22.80
2018-04-11T06:57:17.938Z,21.80
2018-04-11T06:58:17.967Z,22.20
2018-04-11T06:59:17.922Z,21.90
2018-04-11T07:00:17.917Z,22.30
2018-04-11T07:01:17.908Z,21.20
2018-04-11T07:02:17.904Z,23.00
2018-04-11T07:03:17.894Z,22.70
2018-04-11T07:04:17.885Z,23.00
2018-04-11T07:05:17.879Z,24.10
2018-04-11T07:06:17.874Z,23.30
2018-04-11T07:07:17.863Z,23.10
2018-04-11T07:08:17.857Z,23.00
2018-04-11T07:09:17.849Z,23.20
2018-04-11T07:10:17.843Z,23.30
2018-04-11T07:11:17.833Z,22.20
2018-04-11T07:12:17.826Z,23.60
2018-04-11T07:13:17.819Z,23.70
2018-04-11T07:14:17.811Z,23.30
2018-04-11T07:15:17.804Z,22.60
2018-04-11T07:16:17.797Z,23.30
2018-04-11T07:17:17.789Z,23.70
2018-04-11T07:18:17.781Z,23.10
2018-04-11T07:19:17.775Z,22.90
2018-04-11T07:20:17.784Z,22.10
2018-04-11T07:21:17.782Z,21.30
2018-04-11T07:22:17.787Z,20.80
2018-04-11T07:23:17.769Z,21.20
2018-04-11T07:24:17.758Z,20.40
2018-04-11T07:25:17.752Z,21.20
2018-04-11T07:26:17.728Z,20.20
2018-04-11T07:27:17.723Z,19.50
2018-04-11T07:28:17.714Z,19.80
2018-04-11T07:29:17.701Z,18.50
2018-04-11T07:30:17.700Z,18.70
2018-04-11T07:31:17.689Z,18.70
2018-04-11T07:32:17.687Z,18.90
2018-04-11T07:33:17.672Z,18.10
2018-04-11T07:34:17.664Z,19.30
2018-04-11T07:35:17.656Z,18.10
2018-04-11T07:36:17.648Z,18.90
2018-04-11T07:37:17.643Z,18.50
2018-04-11T07:38:17.642Z,17.20
2018-04-11T07:39:17.640Z,16.80
2018-04-11T07:40:17.622Z,17.20
2018-04-11T07:41:17.614Z,16.50
2018-04-11T07:42:17.605Z,16.40
2018-04-11T07:43:17.598Z,16.60
2018-04-11T07:44:17.592Z,16.40
2018-04-11T07:45:17.586Z,16.80
2018-04-11T07:46:17.575Z,15.70
2018-04-11T07:47:17.569Z,14.10
2018-04-11T07:48:17.562Z,13.50
2018-04-11T07:49:17.555Z,12.90
2018-04-11T07:50:17.547Z,13.60
2018-04-11T07:51:17.540Z,12.30
2018-04-11T07:52:17.533Z,13.40
2018-04-11T07:53:17.526Z,12.00
2018-04-11T07:54:17.518Z,13.00
2018-04-11T07:55:17.516Z,11.70
2018-04-11T07:56:17.506Z,10.60
2018-04-11T07:57:17.498Z,9.80
2018-04-11T07:58:17.490Z,9.60
2018-04-11T07:59:17.483Z,9.30
2018-04-11T08:00:17.478Z,9.10
2018-04-11T08:01:17.469Z,8.70
2018-04-11T08:02:17.462Z,9.20
2018-04-11T08:03:17.622Z,9.50
2018-04-11T08:04:17.453Z,8.40
2018-04-11T08:05:17.443Z,8.70
2018-04-11T08:06:17.432Z,8.70
2018-04-11T08:07:17.427Z,8.80
2018-04-11T08:08:17.422Z,9.20
2018-04-11T08:09:17.413Z,9.30
2018-04-11T08:10:17.405Z,9.90
2018-04-11T08:11:17.399Z,10.00
2018-04-11T08:12:17.390Z,9.90
2018-04-11T08:13:17.384Z,9.70
2018-04-11T08:14:17.375Z,10.60
2018-04-11T08:15:17.469Z,10.80
2018-04-11T08:16:17.402Z,10.60
2018-04-11T08:17:17.355Z,11.80
2018-04-11T08:18:17.347Z,11.30
2018-04-11T08:19:17.342Z,11.50
2018-04-11T08:20:17.334Z,12.10
2018-04-11T08:21:17.326Z,11.70
2018-04-11T08:22:17.320Z,11.70
2018-04-11T08:23:17.319Z,11.80
2018-04-11T08:24:17.305Z,11.00
2018-04-11T08:25:17.298Z,12.30
2018-04-11T08:26:17.291Z,12.90
2018-04-11T08:27:17.284Z,13.00
2018-04-11T08:28:17.278Z,13.00
2018-04-11T08:29:17.270Z,13.20
2018-04-11T08:30:17.268Z,11.80
2018-04-11T08:31:17.255Z,11.90
2018-04-11T08:32:17.248Z,12.00
2018-04-11T08:33:17.241Z,12.10
2018-04-11T08:34:17.233Z,12.10
2018-04-11T08:35:17.228Z,11.70
2018-04-11T08:36:17.219Z,12.00
2018-04-11T08:37:17.214Z,11.80
2018-04-11T08:38:17.205Z,12.00
2018-04-11T08:39:17.199Z,11.70
2018-04-11T08:40:17.191Z,11.70
2018-04-11T08:41:17.184Z,11.10
2018-04-11T08:42:17.178Z,11.80
2018-04-11T08:43:17.170Z,11.40
2018-04-11T08:44:17.164Z,12.50
2018-04-11T08:45:17.256Z,12.10
2018-04-11T08:46:17.148Z,11.90
2018-04-11T08:47:17.145Z,11.60
2018-04-11T08:48:17.135Z,11.50
2018-04-11T08:49:17.129Z,12.70
2018-04-11T08:50:17.123Z,11.90
2018-04-11T08:51:17.113Z,12.20
2018-04-11T08:52:17.108Z,12.40
2018-04-11T08:53:17.103Z,12.20
2018-04-11T08:54:17.093Z,11.90
2018-04-11T08:55:17.085Z,13.40
2018-04-11T08:56:17.079Z,13.60
2018-04-11T08:57:17.073Z,15.40
2018-04-11T08:58:17.068Z,14.50
2018-04-11T08:59:17.059Z,15.80
2018-04-11T09:00:17.051Z,16.20
2018-04-11T09:01:17.044Z,15.10
2018-04-11T09:02:17.037Z,15.70
2018-04-11T09:03:17.030Z,15.60
2018-04-11T09:04:17.022Z,16.10
2018-04-11T09:05:17.016Z,17.00
2018-04-11T09:06:17.008Z,16.90
2018-04-11T09:07:17.002Z,15.90
2018-04-11T09:08:16.994Z,15.60
2018-04-11T09:09:16.989Z,16.60
2018-04-11T09:10:16.981Z,16.50
2018-04-11T09:11:16.973Z,16.90
2018-04-11T09:12:16.965Z,16.80
2018-04-11T09:13:16.958Z,17.00
2018-04-11T09:14:16.951Z,17.60
2018-04-11T09:15:16.944Z,16.70
2018-04-11T09:16:16.943Z,16.90
2018-04-11T09:17:16.930Z,17.00
2018-04-11T09:18:16.921Z,15.60
2018-04-11T09:19:16.916Z,17.40
2018-04-11T09:20:16.908Z,16.80
2018-04-11T09:21:16.902Z,16.30
2018-04-11T09:22:16.894Z,15.90
2018-04-11T09:23:16.885Z,15.90
2018-04-11T09:24:16.880Z,15.60
2018-04-11T09:25:16.871Z,15.20
2018-04-11T09:26:16.863Z,15.80
2018-04-11T09:27:16.857Z,16.30
2018-04-11T09:28:16.850Z,15.60
2018-04-11T09:29:16.843Z,16.00
2018-04-11T09:30:16.837Z,17.20
2018-04-11T09:31:16.828Z,15.80
2018-04-11T09:32:16.822Z,15.50
2018-04-11T09:33:16.815Z,15.70
2018-04-11T09:34:16.807Z,16.50
2018-04-11T09:35:16.800Z,16.50
2018-04-11T09:36:16.794Z,16.70
2018-04-11T09:37:16.787Z,17.10
2018-04-11T09:38:16.778Z,16.00
2018-04-11T09:39:16.871Z,15.50
2018-04-11T09:40:16.764Z,15.80
2018-04-11T09:41:16.758Z,15.10
2018-04-11T09:42:16.751Z,16.20
2018-04-11T09:43:16.743Z,17.00
2018-04-11T09:44:16.737Z,15.90
2018-04-11T09:45:16.729Z,16.00
2018-04-11T09:46:16.721Z,16.30
2018-04-11T09:47:16.715Z,16.80
2018-04-11T09:48:16.711Z,16.40
2018-04-11T09:49:16.701Z,16.20
2018-04-11T09:50:16.693Z,15.70
2018-04-11T09:51:16.686Z,16.00
2018-04-11T09:52:16.685Z,15.80
2018-04-11T09:53:16.672Z,16.00
2018-04-11T09:54:16.666Z,15.90
2018-04-11T09:55:16.659Z,16.40
2018-04-11T09:56:16.652Z,19.00
2018-04-11T09:57:16.649Z,16.30
2018-04-11T09:58:16.637Z,18.00
2018-04-11T09:59:16.632Z,17.70
2018-04-11T10:00:16.629Z,16.60
2018-04-11T10:01:16.619Z,17.70
2018-04-11T10:02:16.609Z,18.70
2018-04-11T10:03:16.605Z,18.00
2018-04-11T10:04:16.596Z,17.40
2018-04-11T10:05:16.590Z,17.20
2018-04-11T10:06:16.584Z,17.70
2018-04-11T10:07:16.576Z,17.70
2018-04-11T10:08:16.569Z,17.10
2018-04-11T10:09:16.566Z,15.80
2018-04-11T10:10:16.555Z,16.90
2018-04-11T10:11:16.550Z,16.30
2018-04-11T10:12:16.543Z,17.20
2018-04-11T10:13:16.535Z,18.80
2018-04-11T10:14:16.527Z,20.50
2018-04-11T10:15:16.522Z,20.00
2018-04-11T10:16:16.514Z,18.20
2018-04-11T10:17:16.507Z,16.40
2018-04-11T10:18:16.500Z,17.20
2018-04-11T10:19:16.494Z,17.80
2018-04-11T10:20:16.487Z,18.20
2018-04-11T10:21:16.480Z,18.20
2018-04-11T10:22:16.472Z,18.20
2018-04-11T10:23:16.465Z,18.10
2018-04-11T10:24:16.459Z,17.80
2018-04-11T10:25:16.459Z,17.40
2018-04-11T10:26:16.444Z,17.10
2018-04-11T10:27:16.437Z,16.10
2018-04-11T10:28:16.432Z,18.00
2018-04-11T10:29:16.424Z,18.00
2018-04-11T10:30:16.418Z,18.10
2018-04-11T10:31:16.412Z,16.70
2018-04-11T10:32:16.405Z,17.50
2018-04-11T10:33:16.396Z,16.70
2018-04-11T10:34:16.391Z,17.30
2018-04-11T10:35:16.382Z,17.40
2018-04-11T10:36:16.375Z,16.90
2018-04-11T10:37:16.378Z,16.30
2018-04-11T10:38:16.360Z,16.50
2018-04-11T10:39:16.354Z,15.80
2018-04-11T10:40:16.348Z,17.50
2018-04-11T10:41:16.341Z,17.40
2018-04-11T10:42:16.334Z,16.30
2018-04-11T10:43:16.326Z,16.90
2018-04-11T10:44:16.319Z,15.90
2018-04-11T10:45:16.314Z,16.40
2018-04-11T10:46:16.333Z,14.90
2018-04-11T10:47:16.299Z,15.50
2018-04-11T10:48:16.292Z,15.90
2018-04-11T10:49:16.287Z,14.60
2018-04-11T10:50:16.278Z,15.90
2018-04-11T10:51:16.271Z,16.30
2018-04-11T10:52:16.279Z,15.60
2018-04-11T10:53:16.262Z,15.70
2018-04-11T10:54:16.250Z,15.30
2018-04-11T10:55:16.243Z,15.00
2018-04-11T10:56:16.239Z,15.80
2018-04-11T10:57:16.230Z,17.00
2018-04-11T10:58:16.223Z,16.10
2018-04-11T10:59:16.224Z,16.50
2018-04-11T11:00:16.211Z,16.60
2018-04-11T11:01:16.206Z,15.90
2018-04-11T11:02:16.195Z,17.30
2018-04-11T11:03:16.199Z,17.00
2018-04-11T11:04:16.228Z,16.80
2018-04-11T11:05:16.200Z,16.10
2018-04-11T11:06:16.173Z,16.30
2018-04-11T11:07:16.196Z,15.90
2018-04-11T11:08:16.184Z,16.20
2018-04-11T11:09:16.157Z,16.00
2018-04-11T11:10:16.141Z,17.20
2018-04-11T11:11:16.136Z,17.70
2018-04-11T11:12:16.130Z,17.90
2018-04-11T11:13:16.124Z,18.60
2018-04-11T11:14:16.115Z,17.60
2018-04-11T11:15:16.107Z,17.50
2018-04-11T11:16:16.101Z,18.00
2018-04-11T11:17:16.095Z,17.30
2018-04-11T11:18:16.090Z,16.90
2018-04-11T11:19:16.081Z,17.10
2018-04-11T11:20:16.075Z,16.60
2018-04-11T11:21:16.067Z,17.40
2018-04-11T11:22:16.063Z,16.20
2018-04-11T11:23:16.054Z,16.80
2018-04-11T11:24:16.047Z,17.80
2018-04-11T11:25:16.040Z,16.70
2018-04-11T11:26:16.034Z,16.20
2018-04-11T11:27:16.028Z,17.70
2018-04-11T11:28:16.070Z,17.40
2018-04-11T11:29:16.015Z,18.40
2018-04-11T11:30:16.008Z,17.70
2018-04-11T11:31:16.000Z,19.70
2018-04-11T11:32:15.994Z,18.50
2018-04-11T11:33:15.990Z,19.40
2018-04-11T11:34:15.981Z,19.70
2018-04-11T11:35:15.973Z,19.70
2018-04-11T11:36:15.966Z,19.30
2018-04-11T11:37:15.960Z,19.90
2018-04-11T11:38:15.954Z,19.40
2018-04-11T11:39:15.946Z,19.50
2018-04-11T11:40:15.950Z,20.20
2018-04-11T11:41:15.933Z,20.20
2018-04-11T11:42:15.940Z,19.50
2018-04-11T11:43:15.921Z,18.40
2018-04-11T11:44:15.919Z,17.60
2018-04-11T11:45:15.907Z,17.80
2018-04-11T11:46:15.899Z,19.00
2018-04-11T11:47:15.897Z,19.10
2018-04-11T11:48:15.886Z,19.70
2018-04-11T11:49:15.879Z,19.70
2018-04-11T11:50:15.875Z,20.40
2018-04-11T11:51:15.866Z,18.70
2018-04-11T11:52:15.861Z,16.60
2018-04-11T11:53:15.853Z,18.30
2018-04-11T11:54:15.847Z,19.70
2018-04-11T11:55:15.840Z,19.60
2018-04-11T11:56:15.836Z,20.50
2018-04-11T11:57:15.838Z,20.50
2018-04-11T11:58:15.820Z,18.40
2018-04-11T11:59:15.815Z,16.30
2018-04-11T12:00:15.808Z,16.20
2018-04-11T12:01:15.802Z,16.30
2018-04-11T12:02:15.818Z,19.10
2018-04-11T12:03:15.791Z,17.40
2018-04-11T12:04:15.784Z,17.00
2018-04-11T12:05:15.777Z,15.70
2018-04-11T12:06:15.773Z,16.80
2018-04-11T12:07:15.766Z,15.40
2018-04-11T12:08:15.760Z,16.70
2018-04-11T12:09:15.755Z,16.10
2018-04-11T12:10:15.748Z,13.80
2018-04-11T12:11:15.743Z,15.80
2018-04-11T12:12:15.737Z,17.10
2018-04-11T12:13:15.733Z,16.10
2018-04-11T12:14:15.727Z,15.90
2018-04-11T12:15:15.720Z,17.00
2018-04-11T12:16:15.715Z,16.40
2018-04-11T12:17:15.713Z,17.00
2018-04-11T12:18:15.706Z,16.10
2018-04-11T12:19:15.702Z,16.00
2018-04-11T12:20:15.695Z,17.50
2018-04-11T12:21:15.704Z,17.50
2018-04-11T12:22:15.685Z,17.00
2018-04-11T12:23:15.679Z,16.20
2018-04-11T12:24:15.674Z,16.30
2018-04-11T12:25:15.668Z,17.50
2018-04-11T12:26:15.664Z,17.40
2018-04-11T12:27:15.657Z,15.00
2018-04-11T12:28:15.661Z,14.40
2018-04-11T12:29:15.648Z,17.10
2018-04-11T12:30:15.643Z,16.50
2018-04-11T12:31:15.638Z,15.20
2018-04-11T12:32:15.635Z,15.00
2018-04-11T12:33:15.628Z,14.60
2018-04-11T12:34:15.623Z,14.20
2018-04-11T12:35:15.619Z,14.20
2018-04-11T12:36:15.616Z,13.70
2018-04-11T12:37:15.624Z,14.50
2018-04-11T12:38:15.607Z,14.10
2018-04-11T12:39:15.602Z,13.50
2018-04-11T12:40:15.601Z,13.60
2018-04-11T12:41:15.597Z,14.20
2018-04-11T12:42:15.590Z,12.40
2018-04-11T12:43:15.587Z,14.10
2018-04-11T12:44:15.583Z,15.00
2018-04-11T12:45:15.580Z,16.10
2018-04-11T12:46:15.578Z,15.60
2018-04-11T12:47:15.576Z,15.00
2018-04-11T12:48:15.580Z,14.30
2018-04-11T12:49:15.595Z,14.00
2018-04-11T12:50:15.560Z,14.20
2018-04-11T12:51:15.565Z,13.80
2018-04-11T12:52:15.556Z,14.30
2018-04-11T12:53:15.552Z,13.40